sensor_id;sensor_type;location;lat;lon;timestamp;P1;durP1;ratioP1;P2;durP2;ratioP2
6850;SDS011;3464;42.728;23.296;2023-08-06T00:02:08;14.50;;;4.07;;
6850;SDS011;3464;42.728;23.296;2023-08-06T00:04:34;12.90;;;3.70;;
6850;SDS011;3464;42.728;23.296;2023-08-06T00:07:03;12.43;;;4.20;;
6850;SDS011;3464;42.728;23.296;2023-08-06T00:09:30;13.50;;;4.20;;
6850;SDS011;3464;42.728;23.296;2023-08-06T00:11:57;19.07;;;4.73;;
6850;SDS011;3464;42.728;23.296;2023-08-06T00:14:23;13.93;;;4.50;;
6850;SDS011;3464;42.728;23.296;2023-08-06T00:16:50;14.53;;;4.93;;
6850;SDS011;3464;42.728;23.296;2023-08-06T00:19:16;18.10;;;4.50;;
6850;SDS011;3464;42.728;23.296;2023-08-06T00:21:43;11.20;;;3.70;;
6850;SDS011;3464;42.728;23.296;2023-08-06T00:24:09;12.77;;;5.00;;
6850;SDS011;3464;42.728;23.296;2023-08-06T00:26:36;13.20;;;5.10;;
6850;SDS011;3464;42.728;23.296;2023-08-06T00:29:02;12.60;;;4.90;;
6850;SDS011;3464;42.728;23.296;2023-08-06T00:31:30;11.03;;;4.43;;
6850;SDS011;3464;42.728;23.296;2023-08-06T00:33:56;12.43;;;4.60;;
6850;SDS011;3464;42.728;23.296;2023-08-06T00:36:23;13.73;;;5.50;;
6850;SDS011;3464;42.728;23.296;2023-08-06T00:38:49;12.27;;;4.77;;
6850;SDS011;3464;42.728;23.296;2023-08-06T00:41:16;12.90;;;4.47;;
6850;SDS011;3464;42.728;23.296;2023-08-06T00:43:42;12.90;;;4.60;;
6850;SDS011;3464;42.728;23.296;2023-08-06T00:46:09;13.27;;;5.63;;
6850;SDS011;3464;42.728;23.296;2023-08-06T00:48:36;13.27;;;5.07;;
6850;SDS011;3464;42.728;23.296;2023-08-06T00:51:03;12.30;;;5.30;;
6850;SDS011;3464;42.728;23.296;2023-08-06T00:53:29;13.63;;;5.40;;
6850;SDS011;3464;42.728;23.296;2023-08-06T00:55:56;12.37;;;4.50;;
6850;SDS011;3464;42.728;23.296;2023-08-06T00:58:22;11.23;;;4.83;;
6850;SDS011;3464;42.728;23.296;2023-08-06T01:00:49;13.53;;;4.80;;
6850;SDS011;3464;42.728;23.296;2023-08-06T01:03:16;11.50;;;5.00;;
6850;SDS011;3464;42.728;23.296;2023-08-06T01:05:43;12.60;;;4.93;;
6850;SDS011;3464;42.728;23.296;2023-08-06T01:08:45;12.07;;;4.67;;
6850;SDS011;3464;42.728;23.296;2023-08-06T01:11:05;11.37;;;4.83;;
6850;SDS011;3464;42.728;23.296;2023-08-06T01:13:42;13.43;;;4.93;;
6850;SDS011;3464;42.728;23.296;2023-08-06T01:16:09;12.67;;;4.80;;
6850;SDS011;3464;42.728;23.296;2023-08-06T01:18:36;13.60;;;4.40;;
6850;SDS011;3464;42.728;23.296;2023-08-06T01:21:02;12.90;;;5.10;;
6850;SDS011;3464;42.728;23.296;2023-08-06T01:23:29;11.40;;;4.77;;
6850;SDS011;3464;42.728;23.296;2023-08-06T01:25:57;11.60;;;4.57;;
6850;SDS011;3464;42.728;23.296;2023-08-06T01:28:52;15.43;;;4.97;;
6850;SDS011;3464;42.728;23.296;2023-08-06T01:31:27;12.17;;;5.63;;
6850;SDS011;3464;42.728;23.296;2023-08-06T01:33:53;11.00;;;4.50;;
6850;SDS011;3464;42.728;23.296;2023-08-06T01:36:20;14.00;;;5.50;;
6850;SDS011;3464;42.728;23.296;2023-08-06T01:38:46;14.50;;;4.80;;
6850;SDS011;3464;42.728;23.296;2023-08-06T01:41:13;13.33;;;5.10;;
6850;SDS011;3464;42.728;23.296;2023-08-06T01:43:39;13.20;;;5.50;;
6850;SDS011;3464;42.728;23.296;2023-08-06T01:46:07;12.93;;;5.10;;
6850;SDS011;3464;42.728;23.296;2023-08-06T01:48:34;14.10;;;5.57;;
6850;SDS011;3464;42.728;23.296;2023-08-06T01:51:03;11.87;;;4.63;;
6850;SDS011;3464;42.728;23.296;2023-08-06T01:53:30;12.33;;;5.53;;
6850;SDS011;3464;42.728;23.296;2023-08-06T01:55:57;11.23;;;4.73;;
6850;SDS011;3464;42.728;23.296;2023-08-06T01:58:24;11.90;;;5.23;;
6850;SDS011;3464;42.728;23.296;2023-08-06T02:00:51;13.00;;;4.73;;
6850;SDS011;3464;42.728;23.296;2023-08-06T02:03:18;11.37;;;5.57;;
6850;SDS011;3464;42.728;23.296;2023-08-06T02:05:45;10.87;;;4.80;;
6850;SDS011;3464;42.728;23.296;2023-08-06T02:08:11;11.70;;;5.10;;
6850;SDS011;3464;42.728;23.296;2023-08-06T02:10:38;12.43;;;5.00;;
6850;SDS011;3464;42.728;23.296;2023-08-06T02:13:04;12.10;;;5.00;;
6850;SDS011;3464;42.728;23.296;2023-08-06T02:15:31;12.00;;;4.43;;
6850;SDS011;3464;42.728;23.296;2023-08-06T02:17:57;13.03;;;5.30;;
6850;SDS011;3464;42.728;23.296;2023-08-06T02:20:25;14.40;;;5.27;;
6850;SDS011;3464;42.728;23.296;2023-08-06T02:22:51;12.13;;;5.10;;
6850;SDS011;3464;42.728;23.296;2023-08-06T02:25:18;13.30;;;4.97;;
6850;SDS011;3464;42.728;23.296;2023-08-06T02:27:44;13.23;;;5.00;;
6850;SDS011;3464;42.728;23.296;2023-08-06T02:30:11;14.70;;;5.43;;
6850;SDS011;3464;42.728;23.296;2023-08-06T02:32:37;13.60;;;5.33;;
6850;SDS011;3464;42.728;23.296;2023-08-06T02:35:04;15.63;;;5.33;;
6850;SDS011;3464;42.728;23.296;2023-08-06T02:37:33;14.67;;;4.87;;
6850;SDS011;3464;42.728;23.296;2023-08-06T02:39:59;13.03;;;4.90;;
6850;SDS011;3464;42.728;23.296;2023-08-06T02:42:25;11.17;;;4.00;;
6850;SDS011;3464;42.728;23.296;2023-08-06T02:44:52;11.53;;;4.60;;
6850;SDS011;3464;42.728;23.296;2023-08-06T02:47:25;12.20;;;4.83;;
6850;SDS011;3464;42.728;23.296;2023-08-06T02:49:52;13.00;;;5.10;;
6850;SDS011;3464;42.728;23.296;2023-08-06T02:52:19;12.67;;;5.13;;
6850;SDS011;3464;42.728;23.296;2023-08-06T02:54:45;12.27;;;5.03;;
6850;SDS011;3464;42.728;23.296;2023-08-06T02:57:12;10.67;;;4.60;;
6850;SDS011;3464;42.728;23.296;2023-08-06T02:59:39;15.40;;;5.10;;
6850;SDS011;3464;42.728;23.296;2023-08-06T03:02:06;11.00;;;5.00;;
6850;SDS011;3464;42.728;23.296;2023-08-06T03:04:33;13.47;;;5.07;;
6850;SDS011;3464;42.728;23.296;2023-08-06T03:07:00;12.27;;;4.53;;
6850;SDS011;3464;42.728;23.296;2023-08-06T03:09:26;11.23;;;4.63;;
6850;SDS011;3464;42.728;23.296;2023-08-06T03:11:53;13.10;;;5.00;;
6850;SDS011;3464;42.728;23.296;2023-08-06T03:14:19;11.60;;;4.60;;
6850;SDS011;3464;42.728;23.296;2023-08-06T03:16:46;12.80;;;4.20;;
6850;SDS011;3464;42.728;23.296;2023-08-06T03:19:13;11.27;;;3.83;;
6850;SDS011;3464;42.728;23.296;2023-08-06T03:21:40;10.40;;;4.40;;
6850;SDS011;3464;42.728;23.296;2023-08-06T03:24:06;11.50;;;4.20;;
6850;SDS011;3464;42.728;23.296;2023-08-06T03:26:33;12.10;;;5.00;;
6850;SDS011;3464;42.728;23.296;2023-08-06T03:28:59;12.80;;;5.57;;
6850;SDS011;3464;42.728;23.296;2023-08-06T03:31:26;15.57;;;5.70;;
6850;SDS011;3464;42.728;23.296;2023-08-06T03:33:52;13.50;;;4.77;;
6850;SDS011;3464;42.728;23.296;2023-08-06T03:36:19;11.80;;;5.10;;
6850;SDS011;3464;42.728;23.296;2023-08-06T03:38:46;11.60;;;4.90;;
6850;SDS011;3464;42.728;23.296;2023-08-06T03:41:12;13.13;;;5.10;;
6850;SDS011;3464;42.728;23.296;2023-08-06T03:43:39;10.50;;;4.23;;
6850;SDS011;3464;42.728;23.296;2023-08-06T03:46:05;13.63;;;4.83;;
6850;SDS011;3464;42.728;23.296;2023-08-06T03:48:32;12.90;;;4.33;;
6850;SDS011;3464;42.728;23.296;2023-08-06T03:51:00;11.97;;;4.63;;
6850;SDS011;3464;42.728;23.296;2023-08-06T03:53:27;11.37;;;4.73;;
6850;SDS011;3464;42.728;23.296;2023-08-06T03:55:54;11.90;;;4.70;;
6850;SDS011;3464;42.728;23.296;2023-08-06T03:58:21;11.10;;;4.60;;
6850;SDS011;3464;42.728;23.296;2023-08-06T04:00:47;11.53;;;4.70;;
6850;SDS011;3464;42.728;23.296;2023-08-06T04:03:14;10.87;;;4.70;;
6850;SDS011;3464;42.728;23.296;2023-08-06T04:05:41;12.77;;;4.87;;
6850;SDS011;3464;42.728;23.296;2023-08-06T04:08:08;11.43;;;4.40;;
6850;SDS011;3464;42.728;23.296;2023-08-06T04:10:34;10.50;;;4.33;;
6850;SDS011;3464;42.728;23.296;2023-08-06T04:13:01;12.17;;;5.20;;
6850;SDS011;3464;42.728;23.296;2023-08-06T04:15:28;9.60;;;4.37;;
6850;SDS011;3464;42.728;23.296;2023-08-06T04:17:55;11.00;;;4.70;;
6850;SDS011;3464;42.728;23.296;2023-08-06T04:20:21;11.93;;;5.40;;
6850;SDS011;3464;42.728;23.296;2023-08-06T04:22:48;12.17;;;4.73;;
6850;SDS011;3464;42.728;23.296;2023-08-06T04:25:14;10.60;;;4.50;;
6850;SDS011;3464;42.728;23.296;2023-08-06T04:27:41;11.00;;;4.97;;
6850;SDS011;3464;42.728;23.296;2023-08-06T04:30:08;10.10;;;4.50;;
6850;SDS011;3464;42.728;23.296;2023-08-06T04:32:35;10.50;;;4.60;;
6850;SDS011;3464;42.728;23.296;2023-08-06T04:35:01;12.43;;;5.10;;
6850;SDS011;3464;42.728;23.296;2023-08-06T04:37:28;11.40;;;5.07;;
6850;SDS011;3464;42.728;23.296;2023-08-06T04:39:55;10.57;;;4.60;;
6850;SDS011;3464;42.728;23.296;2023-08-06T04:42:21;13.10;;;4.47;;
6850;SDS011;3464;42.728;23.296;2023-08-06T04:44:48;10.17;;;4.13;;
6850;SDS011;3464;42.728;23.296;2023-08-06T04:47:15;10.20;;;4.17;;
6850;SDS011;3464;42.728;23.296;2023-08-06T04:49:42;9.90;;;4.37;;
6850;SDS011;3464;42.728;23.296;2023-08-06T04:52:10;11.30;;;4.23;;
6850;SDS011;3464;42.728;23.296;2023-08-06T04:54:37;13.47;;;5.50;;
6850;SDS011;3464;42.728;23.296;2023-08-06T04:57:03;11.40;;;4.30;;
6850;SDS011;3464;42.728;23.296;2023-08-06T04:59:30;13.23;;;4.63;;
6850;SDS011;3464;42.728;23.296;2023-08-06T05:01:57;10.53;;;4.60;;
6850;SDS011;3464;42.728;23.296;2023-08-06T05:04:24;10.90;;;4.43;;
6850;SDS011;3464;42.728;23.296;2023-08-06T05:06:51;10.87;;;4.23;;
6850;SDS011;3464;42.728;23.296;2023-08-06T05:09:20;12.50;;;4.73;;
6850;SDS011;3464;42.728;23.296;2023-08-06T05:11:46;10.03;;;3.93;;
6850;SDS011;3464;42.728;23.296;2023-08-06T05:14:13;9.77;;;3.40;;
6850;SDS011;3464;42.728;23.296;2023-08-06T05:16:39;12.50;;;3.70;;
6850;SDS011;3464;42.728;23.296;2023-08-06T05:19:06;10.87;;;4.57;;
6850;SDS011;3464;42.728;23.296;2023-08-06T05:21:32;9.63;;;3.40;;
6850;SDS011;3464;42.728;23.296;2023-08-06T05:23:59;9.43;;;3.00;;
6850;SDS011;3464;42.728;23.296;2023-08-06T05:26:25;9.40;;;3.00;;
6850;SDS011;3464;42.728;23.296;2023-08-06T05:28:52;8.70;;;2.90;;
6850;SDS011;3464;42.728;23.296;2023-08-06T05:31:18;10.30;;;3.00;;
6850;SDS011;3464;42.728;23.296;2023-08-06T05:33:46;9.80;;;3.30;;
6850;SDS011;3464;42.728;23.296;2023-08-06T05:36:12;11.13;;;3.50;;
6850;SDS011;3464;42.728;23.296;2023-08-06T05:38:39;11.60;;;3.67;;
6850;SDS011;3464;42.728;23.296;2023-08-06T05:41:06;10.60;;;4.33;;
6850;SDS011;3464;42.728;23.296;2023-08-06T05:43:33;10.87;;;4.00;;
6850;SDS011;3464;42.728;23.296;2023-08-06T05:46:00;9.33;;;3.47;;
6850;SDS011;3464;42.728;23.296;2023-08-06T05:48:26;10.23;;;2.87;;
6850;SDS011;3464;42.728;23.296;2023-08-06T05:50:53;10.93;;;3.50;;
6850;SDS011;3464;42.728;23.296;2023-08-06T05:53:21;10.47;;;3.20;;
6850;SDS011;3464;42.728;23.296;2023-08-06T05:55:47;10.20;;;3.20;;
6850;SDS011;3464;42.728;23.296;2023-08-06T05:58:14;8.83;;;2.70;;
6850;SDS011;3464;42.728;23.296;2023-08-06T06:00:40;8.50;;;2.83;;
6850;SDS011;3464;42.728;23.296;2023-08-06T06:03:07;11.00;;;2.83;;
6850;SDS011;3464;42.728;23.296;2023-08-06T06:05:34;9.10;;;3.03;;
6850;SDS011;3464;42.728;23.296;2023-08-06T06:08:00;9.97;;;3.00;;
6850;SDS011;3464;42.728;23.296;2023-08-06T06:10:27;12.00;;;2.57;;
6850;SDS011;3464;42.728;23.296;2023-08-06T06:12:53;9.43;;;2.53;;
6850;SDS011;3464;42.728;23.296;2023-08-06T06:15:20;10.03;;;2.43;;
6850;SDS011;3464;42.728;23.296;2023-08-06T06:17:47;8.90;;;2.40;;
6850;SDS011;3464;42.728;23.296;2023-08-06T06:20:14;9.00;;;2.20;;
6850;SDS011;3464;42.728;23.296;2023-08-06T06:22:40;9.80;;;2.60;;
6850;SDS011;3464;42.728;23.296;2023-08-06T06:25:07;9.60;;;2.10;;
6850;SDS011;3464;42.728;23.296;2023-08-06T06:27:33;8.30;;;2.40;;
6850;SDS011;3464;42.728;23.296;2023-08-06T06:30:00;9.20;;;2.10;;
6850;SDS011;3464;42.728;23.296;2023-08-06T06:32:27;8.77;;;2.10;;
6850;SDS011;3464;42.728;23.296;2023-08-06T06:34:53;7.90;;;1.93;;
6850;SDS011;3464;42.728;23.296;2023-08-06T06:37:20;8.97;;;1.80;;
6850;SDS011;3464;42.728;23.296;2023-08-06T06:39:46;9.40;;;1.90;;
6850;SDS011;3464;42.728;23.296;2023-08-06T06:42:13;7.90;;;1.60;;
6850;SDS011;3464;42.728;23.296;2023-08-06T06:44:39;9.27;;;2.00;;
6850;SDS011;3464;42.728;23.296;2023-08-06T06:47:06;8.30;;;2.30;;
6850;SDS011;3464;42.728;23.296;2023-08-06T06:49:33;8.60;;;2.07;;
6850;SDS011;3464;42.728;23.296;2023-08-06T06:51:59;9.17;;;1.93;;
6850;SDS011;3464;42.728;23.296;2023-08-06T06:54:26;8.90;;;2.10;;
6850;SDS011;3464;42.728;23.296;2023-08-06T06:56:52;8.53;;;2.33;;
6850;SDS011;3464;42.728;23.296;2023-08-06T06:59:19;8.30;;;2.30;;
6850;SDS011;3464;42.728;23.296;2023-08-06T07:01:45;11.70;;;2.40;;
6850;SDS011;3464;42.728;23.296;2023-08-06T07:04:12;10.57;;;2.67;;
6850;SDS011;3464;42.728;23.296;2023-08-06T07:06:39;9.70;;;2.83;;
6850;SDS011;3464;42.728;23.296;2023-08-06T07:09:05;9.90;;;2.50;;
6850;SDS011;3464;42.728;23.296;2023-08-06T07:11:32;11.07;;;2.70;;
6850;SDS011;3464;42.728;23.296;2023-08-06T07:13:58;8.90;;;2.50;;
6850;SDS011;3464;42.728;23.296;2023-08-06T07:16:25;9.90;;;2.27;;
6850;SDS011;3464;42.728;23.296;2023-08-06T07:18:53;8.50;;;2.40;;
6850;SDS011;3464;42.728;23.296;2023-08-06T07:21:19;8.90;;;2.10;;
6850;SDS011;3464;42.728;23.296;2023-08-06T07:23:45;7.90;;;2.00;;
6850;SDS011;3464;42.728;23.296;2023-08-06T07:26:12;9.13;;;2.13;;
6850;SDS011;3464;42.728;23.296;2023-08-06T07:28:38;10.13;;;2.43;;
6850;SDS011;3464;42.728;23.296;2023-08-06T07:31:05;9.10;;;2.03;;
6850;SDS011;3464;42.728;23.296;2023-08-06T07:33:32;8.10;;;2.13;;
6850;SDS011;3464;42.728;23.296;2023-08-06T07:35:58;8.43;;;2.30;;
6850;SDS011;3464;42.728;23.296;2023-08-06T07:38:25;9.27;;;2.50;;
6850;SDS011;3464;42.728;23.296;2023-08-06T07:40:51;8.60;;;2.50;;
6850;SDS011;3464;42.728;23.296;2023-08-06T07:43:18;9.90;;;2.50;;
6850;SDS011;3464;42.728;23.296;2023-08-06T07:45:44;8.40;;;2.10;;
6850;SDS011;3464;42.728;23.296;2023-08-06T07:48:11;9.17;;;2.33;;
6850;SDS011;3464;42.728;23.296;2023-08-06T07:50:37;10.83;;;2.57;;
6850;SDS011;3464;42.728;23.296;2023-08-06T07:53:04;9.30;;;2.47;;
6850;SDS011;3464;42.728;23.296;2023-08-06T07:55:31;9.50;;;2.50;;
6850;SDS011;3464;42.728;23.296;2023-08-06T07:57:57;11.50;;;2.70;;
6850;SDS011;3464;42.728;23.296;2023-08-06T08:00:24;9.90;;;2.63;;
6850;SDS011;3464;42.728;23.296;2023-08-06T08:02:50;10.80;;;2.77;;
6850;SDS011;3464;42.728;23.296;2023-08-06T08:05:17;9.90;;;3.00;;
6850;SDS011;3464;42.728;23.296;2023-08-06T08:07:43;9.20;;;3.03;;
6850;SDS011;3464;42.728;23.296;2023-08-06T08:10:10;9.50;;;3.17;;
6850;SDS011;3464;42.728;23.296;2023-08-06T08:12:36;12.47;;;3.80;;
6850;SDS011;3464;42.728;23.296;2023-08-06T08:15:03;12.13;;;3.27;;
6850;SDS011;3464;42.728;23.296;2023-08-06T08:17:31;11.17;;;3.20;;
6850;SDS011;3464;42.728;23.296;2023-08-06T08:19:57;11.40;;;3.87;;
6850;SDS011;3464;42.728;23.296;2023-08-06T08:22:24;11.50;;;3.37;;
6850;SDS011;3464;42.728;23.296;2023-08-06T08:24:50;10.87;;;3.20;;
6850;SDS011;3464;42.728;23.296;2023-08-06T08:27:17;11.30;;;3.23;;
6850;SDS011;3464;42.728;23.296;2023-08-06T08:29:44;13.13;;;3.50;;
6850;SDS011;3464;42.728;23.296;2023-08-06T08:32:10;9.97;;;3.17;;
6850;SDS011;3464;42.728;23.296;2023-08-06T08:34:37;9.60;;;2.90;;
6850;SDS011;3464;42.728;23.296;2023-08-06T08:37:04;10.70;;;3.50;;
6850;SDS011;3464;42.728;23.296;2023-08-06T08:39:30;10.17;;;3.30;;
6850;SDS011;3464;42.728;23.296;2023-08-06T08:41:57;9.17;;;2.90;;
6850;SDS011;3464;42.728;23.296;2023-08-06T08:44:24;10.97;;;3.77;;
6850;SDS011;3464;42.728;23.296;2023-08-06T08:46:51;11.73;;;3.60;;
6850;SDS011;3464;42.728;23.296;2023-08-06T08:49:18;9.57;;;3.13;;
6850;SDS011;3464;42.728;23.296;2023-08-06T08:51:46;12.70;;;3.90;;
6850;SDS011;3464;42.728;23.296;2023-08-06T08:54:13;10.83;;;3.27;;
6850;SDS011;3464;42.728;23.296;2023-08-06T08:56:39;11.80;;;3.40;;
6850;SDS011;3464;42.728;23.296;2023-08-06T08:59:06;10.50;;;4.00;;
6850;SDS011;3464;42.728;23.296;2023-08-06T09:01:32;10.57;;;3.13;;
6850;SDS011;3464;42.728;23.296;2023-08-06T09:03:59;9.40;;;3.20;;
6850;SDS011;3464;42.728;23.296;2023-08-06T09:06:26;11.03;;;2.90;;
6850;SDS011;3464;42.728;23.296;2023-08-06T09:09:01;10.00;;;3.40;;
6850;SDS011;3464;42.728;23.296;2023-08-06T09:11:41;11.67;;;3.67;;
6850;SDS011;3464;42.728;23.296;2023-08-06T09:14:06;14.83;;;3.20;;
6850;SDS011;3464;42.728;23.296;2023-08-06T09:16:35;9.43;;;3.13;;
6850;SDS011;3464;42.728;23.296;2023-08-06T09:19:07;12.10;;;3.60;;
6850;SDS011;3464;42.728;23.296;2023-08-06T09:21:35;53.87;;;8.67;;
6850;SDS011;3464;42.728;23.296;2023-08-06T09:24:00;11.90;;;2.97;;
6850;SDS011;3464;42.728;23.296;2023-08-06T09:26:32;11.43;;;2.90;;
6850;SDS011;3464;42.728;23.296;2023-08-06T09:28:53;9.87;;;3.17;;
6850;SDS011;3464;42.728;23.296;2023-08-06T09:31:20;11.33;;;3.10;;
6850;SDS011;3464;42.728;23.296;2023-08-06T09:33:46;9.73;;;3.13;;
6850;SDS011;3464;42.728;23.296;2023-08-06T09:36:13;9.23;;;3.03;;
6850;SDS011;3464;42.728;23.296;2023-08-06T09:38:40;9.50;;;3.20;;
6850;SDS011;3464;42.728;23.296;2023-08-06T09:41:06;9.50;;;3.30;;
6850;SDS011;3464;42.728;23.296;2023-08-06T09:43:40;10.23;;;3.30;;
6850;SDS011;3464;42.728;23.296;2023-08-06T09:46:11;9.90;;;2.83;;
6850;SDS011;3464;42.728;23.296;2023-08-06T09:48:37;10.43;;;3.00;;
6850;SDS011;3464;42.728;23.296;2023-08-06T09:51:04;10.00;;;3.13;;
6850;SDS011;3464;42.728;23.296;2023-08-06T09:53:30;11.03;;;3.43;;
6850;SDS011;3464;42.728;23.296;2023-08-06T09:55:57;10.00;;;3.00;;
6850;SDS011;3464;42.728;23.296;2023-08-06T09:58:23;12.43;;;3.13;;
6850;SDS011;3464;42.728;23.296;2023-08-06T10:00:50;8.93;;;2.80;;
6850;SDS011;3464;42.728;23.296;2023-08-06T10:03:16;13.57;;;2.80;;
6850;SDS011;3464;42.728;23.296;2023-08-06T10:05:47;13.60;;;3.57;;
6850;SDS011;3464;42.728;23.296;2023-08-06T10:08:14;9.77;;;2.53;;
6850;SDS011;3464;42.728;23.296;2023-08-06T10:10:41;9.80;;;2.67;;
6850;SDS011;3464;42.728;23.296;2023-08-06T10:13:09;9.93;;;2.50;;
6850;SDS011;3464;42.728;23.296;2023-08-06T10:15:36;8.90;;;2.77;;
6850;SDS011;3464;42.728;23.296;2023-08-06T10:18:02;10.07;;;3.23;;
6850;SDS011;3464;42.728;23.296;2023-08-06T10:20:34;10.80;;;3.00;;
6850;SDS011;3464;42.728;23.296;2023-08-06T10:23:02;10.33;;;2.77;;
6850;SDS011;3464;42.728;23.296;2023-08-06T10:25:31;8.90;;;2.30;;
6850;SDS011;3464;42.728;23.296;2023-08-06T10:27:58;11.20;;;2.73;;
6850;SDS011;3464;42.728;23.296;2023-08-06T10:30:27;9.40;;;2.67;;
6850;SDS011;3464;42.728;23.296;2023-08-06T10:32:55;10.30;;;3.17;;
6850;SDS011;3464;42.728;23.296;2023-08-06T10:37:58;10.00;;;2.80;;
6850;SDS011;3464;42.728;23.296;2023-08-06T10:40:25;9.37;;;2.57;;
6850;SDS011;3464;42.728;23.296;2023-08-06T10:42:52;9.77;;;2.60;;
6850;SDS011;3464;42.728;23.296;2023-08-06T10:45:19;10.93;;;2.83;;
6850;SDS011;3464;42.728;23.296;2023-08-06T10:47:46;9.20;;;2.93;;
6850;SDS011;3464;42.728;23.296;2023-08-06T10:50:15;9.07;;;2.80;;
6850;SDS011;3464;42.728;23.296;2023-08-06T10:52:41;9.20;;;2.70;;
6850;SDS011;3464;42.728;23.296;2023-08-06T10:55:08;9.20;;;2.73;;
6850;SDS011;3464;42.728;23.296;2023-08-06T10:57:36;11.40;;;2.90;;
6850;SDS011;3464;42.728;23.296;2023-08-06T11:00:04;9.40;;;2.97;;
6850;SDS011;3464;42.728;23.296;2023-08-06T11:02:34;9.97;;;2.50;;
6850;SDS011;3464;42.728;23.296;2023-08-06T11:05:05;10.37;;;3.40;;
6850;SDS011;3464;42.728;23.296;2023-08-06T11:07:31;10.10;;;3.80;;
6850;SDS011;3464;42.728;23.296;2023-08-06T11:10:01;10.10;;;3.90;;
6850;SDS011;3464;42.728;23.296;2023-08-06T11:12:27;13.33;;;4.13;;
6850;SDS011;3464;42.728;23.296;2023-08-06T11:14:54;11.47;;;3.70;;
6850;SDS011;3464;42.728;23.296;2023-08-06T11:17:21;10.73;;;3.77;;
6850;SDS011;3464;42.728;23.296;2023-08-06T11:19:47;11.10;;;4.07;;
6850;SDS011;3464;42.728;23.296;2023-08-06T11:22:14;11.00;;;4.27;;
6850;SDS011;3464;42.728;23.296;2023-08-06T11:24:41;9.83;;;4.00;;
6850;SDS011;3464;42.728;23.296;2023-08-06T11:27:11;10.87;;;4.20;;
6850;SDS011;3464;42.728;23.296;2023-08-06T11:29:38;11.43;;;4.23;;
6850;SDS011;3464;42.728;23.296;2023-08-06T11:32:04;11.40;;;4.50;;
6850;SDS011;3464;42.728;23.296;2023-08-06T11:34:30;13.87;;;5.07;;
6850;SDS011;3464;42.728;23.296;2023-08-06T11:36:57;12.63;;;4.67;;
6850;SDS011;3464;42.728;23.296;2023-08-06T11:39:24;10.20;;;4.30;;
6850;SDS011;3464;42.728;23.296;2023-08-06T11:41:51;11.00;;;4.23;;
6850;SDS011;3464;42.728;23.296;2023-08-06T11:44:19;10.73;;;4.37;;
6850;SDS011;3464;42.728;23.296;2023-08-06T11:46:51;9.90;;;4.13;;
6850;SDS011;3464;42.728;23.296;2023-08-06T11:49:19;14.13;;;4.37;;
6850;SDS011;3464;42.728;23.296;2023-08-06T11:51:45;10.63;;;4.67;;
6850;SDS011;3464;42.728;23.296;2023-08-06T11:54:12;10.27;;;4.20;;
6850;SDS011;3464;42.728;23.296;2023-08-06T11:56:38;10.70;;;4.70;;
6850;SDS011;3464;42.728;23.296;2023-08-06T11:59:05;11.57;;;4.40;;
6850;SDS011;3464;42.728;23.296;2023-08-06T12:01:32;14.00;;;4.80;;
6850;SDS011;3464;42.728;23.296;2023-08-06T12:03:59;14.57;;;4.47;;
6850;SDS011;3464;42.728;23.296;2023-08-06T12:06:27;12.90;;;5.10;;
6850;SDS011;3464;42.728;23.296;2023-08-06T12:08:53;13.07;;;5.00;;
6850;SDS011;3464;42.728;23.296;2023-08-06T12:11:22;11.50;;;5.13;;
6850;SDS011;3464;42.728;23.296;2023-08-06T12:13:51;21.27;;;6.77;;
6850;SDS011;3464;42.728;23.296;2023-08-06T12:16:17;15.73;;;6.10;;
6850;SDS011;3464;42.728;23.296;2023-08-06T12:18:43;16.53;;;6.10;;
6850;SDS011;3464;42.728;23.296;2023-08-06T12:21:10;14.20;;;5.83;;
6850;SDS011;3464;42.728;23.296;2023-08-06T12:23:36;16.70;;;6.50;;
6850;SDS011;3464;42.728;23.296;2023-08-06T12:26:03;18.53;;;6.00;;
6850;SDS011;3464;42.728;23.296;2023-08-06T12:28:29;18.60;;;7.00;;
6850;SDS011;3464;42.728;23.296;2023-08-06T12:30:56;11.17;;;5.50;;
6850;SDS011;3464;42.728;23.296;2023-08-06T12:33:22;12.17;;;5.33;;
6850;SDS011;3464;42.728;23.296;2023-08-06T12:35:50;12.30;;;5.60;;
6850;SDS011;3464;42.728;23.296;2023-08-06T12:38:16;11.83;;;5.47;;
6850;SDS011;3464;42.728;23.296;2023-08-06T12:40:43;16.40;;;5.23;;
6850;SDS011;3464;42.728;23.296;2023-08-06T12:43:09;11.33;;;4.63;;
6850;SDS011;3464;42.728;23.296;2023-08-06T12:45:36;13.37;;;5.17;;
6850;SDS011;3464;42.728;23.296;2023-08-06T12:48:03;18.73;;;5.27;;
6850;SDS011;3464;42.728;23.296;2023-08-06T12:50:29;12.87;;;5.03;;
6850;SDS011;3464;42.728;23.296;2023-08-06T12:52:57;12.43;;;5.13;;
6850;SDS011;3464;42.728;23.296;2023-08-06T12:55:23;13.20;;;5.23;;
6850;SDS011;3464;42.728;23.296;2023-08-06T12:57:50;15.00;;;5.07;;
6850;SDS011;3464;42.728;23.296;2023-08-06T13:00:18;13.20;;;4.40;;
6850;SDS011;3464;42.728;23.296;2023-08-06T13:02:45;18.80;;;5.57;;
6850;SDS011;3464;42.728;23.296;2023-08-06T13:05:12;12.40;;;4.97;;
6850;SDS011;3464;42.728;23.296;2023-08-06T13:07:38;12.00;;;4.53;;
6850;SDS011;3464;42.728;23.296;2023-08-06T13:10:05;11.57;;;4.47;;
6850;SDS011;3464;42.728;23.296;2023-08-06T13:12:32;10.33;;;4.47;;
6850;SDS011;3464;42.728;23.296;2023-08-06T13:14:59;14.03;;;4.43;;
6850;SDS011;3464;42.728;23.296;2023-08-06T13:17:26;11.03;;;4.37;;
6850;SDS011;3464;42.728;23.296;2023-08-06T13:19:52;10.50;;;4.27;;
6850;SDS011;3464;42.728;23.296;2023-08-06T13:22:19;13.60;;;4.40;;
6850;SDS011;3464;42.728;23.296;2023-08-06T13:24:46;13.70;;;4.37;;
6850;SDS011;3464;42.728;23.296;2023-08-06T13:27:12;12.97;;;4.27;;
6850;SDS011;3464;42.728;23.296;2023-08-06T13:29:39;12.53;;;4.57;;
6850;SDS011;3464;42.728;23.296;2023-08-06T13:32:05;11.70;;;4.27;;
6850;SDS011;3464;42.728;23.296;2023-08-06T13:34:32;15.80;;;4.80;;
6850;SDS011;3464;42.728;23.296;2023-08-06T13:36:59;12.17;;;4.80;;
6850;SDS011;3464;42.728;23.296;2023-08-06T13:39:26;16.10;;;4.93;;
6850;SDS011;3464;42.728;23.296;2023-08-06T13:41:52;11.93;;;4.70;;
6850;SDS011;3464;42.728;23.296;2023-08-06T13:44:19;11.50;;;4.60;;
6850;SDS011;3464;42.728;23.296;2023-08-06T13:46:45;12.93;;;5.67;;
6850;SDS011;3464;42.728;23.296;2023-08-06T13:49:12;15.23;;;4.40;;
6850;SDS011;3464;42.728;23.296;2023-08-06T13:51:38;11.50;;;4.60;;
6850;SDS011;3464;42.728;23.296;2023-08-06T13:54:05;13.03;;;4.43;;
6850;SDS011;3464;42.728;23.296;2023-08-06T13:56:32;11.40;;;4.50;;
6850;SDS011;3464;42.728;23.296;2023-08-06T13:58:58;14.30;;;4.80;;
6850;SDS011;3464;42.728;23.296;2023-08-06T14:01:24;11.20;;;3.93;;
6850;SDS011;3464;42.728;23.296;2023-08-06T14:03:53;10.30;;;4.30;;
6850;SDS011;3464;42.728;23.296;2023-08-06T14:06:20;11.30;;;4.27;;
6850;SDS011;3464;42.728;23.296;2023-08-06T14:08:46;13.10;;;4.50;;
6850;SDS011;3464;42.728;23.296;2023-08-06T14:11:13;12.77;;;4.00;;
6850;SDS011;3464;42.728;23.296;2023-08-06T14:13:40;12.03;;;4.67;;
6850;SDS011;3464;42.728;23.296;2023-08-06T14:16:07;12.53;;;4.47;;
6850;SDS011;3464;42.728;23.296;2023-08-06T14:18:33;12.73;;;4.60;;
6850;SDS011;3464;42.728;23.296;2023-08-06T14:21:00;11.73;;;5.00;;
6850;SDS011;3464;42.728;23.296;2023-08-06T14:23:26;13.17;;;4.60;;
6850;SDS011;3464;42.728;23.296;2023-08-06T14:25:54;11.97;;;4.37;;
6850;SDS011;3464;42.728;23.296;2023-08-06T14:28:20;12.73;;;4.30;;
6850;SDS011;3464;42.728;23.296;2023-08-06T14:30:47;11.47;;;4.77;;
6850;SDS011;3464;42.728;23.296;2023-08-06T14:33:14;13.50;;;3.93;;
6850;SDS011;3464;42.728;23.296;2023-08-06T14:35:40;11.90;;;4.80;;
6850;SDS011;3464;42.728;23.296;2023-08-06T14:38:07;15.80;;;5.33;;
6850;SDS011;3464;42.728;23.296;2023-08-06T14:40:33;11.90;;;4.60;;
6850;SDS011;3464;42.728;23.296;2023-08-06T14:43:00;14.53;;;4.67;;
6850;SDS011;3464;42.728;23.296;2023-08-06T14:45:26;13.00;;;5.13;;
6850;SDS011;3464;42.728;23.296;2023-08-06T14:47:53;12.50;;;5.47;;
6850;SDS011;3464;42.728;23.296;2023-08-06T14:50:20;16.07;;;6.60;;
6850;SDS011;3464;42.728;23.296;2023-08-06T14:52:47;13.10;;;4.70;;